Time;durP1;ratioP1;P1;durP2;ratioP2;P2;SDS_P1;SDS_P2;PMS_P1;PMS_P2;Temp;Humidity;BMP_temperature;BMP_pressure;BME280_temperature;BME280_humidity;BME280_pressure;Samples;Min_cycle;Max_cycle;Signal;HPM_P1;HPM_P2
2023/07/31 00:00:24;;;;;;;13.33;5.03;;;17.20;1.00;;;;;;4973921;28;20628;-84
2023/07/31 00:02:51;;;;;;;6.07;4.20;;;17.20;1.00;;;;;;4974459;28;20185;-83
2023/07/31 00:05:16;;;;;;;12.30;5.00;;;17.20;1.00;;;;;;4974267;28;20193;-84
2023/07/31 00:07:42;;;;;;;12.93;5.00;;;17.20;1.00;;;;;;4969899;28;20578;-84
2023/07/31 00:10:08;;;;;;;10.00;4.60;;;17.20;1.00;;;;;;4973402;28;20682;-83
2023/07/31 00:12:33;;;;;;;8.43;4.83;;;17.20;1.00;;;;;;4972312;28;20197;-84
2023/07/31 00:14:59;;;;;;;12.57;4.93;;;17.20;1.00;;;;;;4972891;28;20442;-84
2023/07/31 00:17:24;;;;;;;10.30;4.70;;;17.20;1.00;;;;;;4971919;28;20226;-84
2023/07/31 00:19:50;;;;;;;7.80;5.70;;;17.30;1.00;;;;;;4973928;28;20253;-84
2023/07/31 00:22:16;;;;;;;8.77;4.20;;;17.30;1.00;;;;;;4967564;28;20955;-83
2023/07/31 00:24:41;;;;;;;10.40;4.57;;;17.30;1.00;;;;;;4972426;28;20480;-84
2023/07/31 00:27:07;;;;;;;10.10;4.83;;;17.30;1.00;;;;;;4972883;28;20960;-85
2023/07/31 00:29:32;;;;;;;11.57;5.40;;;17.30;1.00;;;;;;4973730;28;20197;-85
2023/07/31 00:31:58;;;;;;;7.03;4.07;;;17.30;1.00;;;;;;4973244;28;20210;-85
2023/07/31 00:34:23;;;;;;;12.97;5.10;;;17.30;1.00;;;;;;4973332;28;20274;-84
2023/07/31 00:36:49;;;;;;;9.77;4.00;;;17.30;1.00;;;;;;4973688;28;20698;-84
2023/07/31 00:39:14;;;;;;;7.80;4.20;;;17.30;1.00;;;;;;4974419;28;20238;-84
2023/07/31 00:41:40;;;;;;;9.70;4.40;;;17.30;1.00;;;;;;4968779;28;20350;-84
2023/07/31 00:44:05;;;;;;;12.30;4.60;;;17.30;1.00;;;;;;4988598;28;20186;-85
2023/07/31 00:46:31;;;;;;;9.53;4.13;;;17.30;1.00;;;;;;4973065;28;20257;-84
2023/07/31 00:48:57;;;;;;;7.90;4.27;;;17.30;1.00;;;;;;4973720;28;20747;-84
2023/07/31 00:51:22;;;;;;;11.90;3.93;;;17.30;1.00;;;;;;4987842;28;20225;-84
2023/07/31 00:53:48;;;;;;;11.27;4.50;;;17.30;99.90;;;;;;4973508;28;20212;-84
2023/07/31 00:56:14;;;;;;;10.13;3.97;;;17.30;99.90;;;;;;4970229;28;20555;-84
2023/07/31 00:58:40;;;;;;;7.63;4.10;;;17.30;99.90;;;;;;4972850;28;20210;-84
2023/07/31 01:01:06;;;;;;;9.90;4.60;;;17.30;99.90;;;;;;4970622;28;20716;-84
2023/07/31 01:03:31;;;;;;;9.03;4.53;;;17.20;99.90;;;;;;4972802;28;20472;-83
2023/07/31 01:06:04;;;;;;;8.90;3.90;;;17.20;99.90;;;;;;4972639;28;20180;-84
2023/07/31 01:09:02;;;;;;;11.80;4.30;;;17.20;99.90;;;;;;4967906;28;20214;-85
2023/07/31 01:11:30;;;;;;;13.13;4.53;;;17.20;99.90;;;;;;4974016;28;20836;-84
2023/07/31 01:13:56;;;;;;;12.43;4.60;;;17.20;99.90;;;;;;4970760;28;20541;-85
2023/07/31 01:16:22;;;;;;;13.53;4.50;;;17.20;99.90;;;;;;4973576;28;20446;-84
2023/07/31 01:18:47;;;;;;;9.40;5.40;;;17.20;99.90;;;;;;4972804;28;21029;-85
2023/07/31 01:21:56;;;;;;;14.67;4.97;;;17.20;99.90;;;;;;4973097;28;21066;-84
2023/07/31 01:24:44;;;;;;;11.23;4.60;;;17.20;99.90;;;;;;4972420;28;20244;-85
2023/07/31 01:27:14;;;;;;;8.83;5.10;;;17.20;99.90;;;;;;4973201;28;21057;-84
2023/07/31 01:30:03;;;;;;;9.10;4.40;;;17.20;99.90;;;;;;4972389;28;20442;-84
2023/07/31 01:32:29;;;;;;;7.80;4.70;;;17.20;99.90;;;;;;4972962;28;21057;-84
2023/07/31 01:34:58;;;;;;;15.40;5.50;;;17.20;99.90;;;;;;4973384;28;20476;-84
2023/07/31 01:37:29;;;;;;;10.33;4.80;;;17.20;99.90;;;;;;4973169;28;20238;-84
2023/07/31 01:39:54;;;;;;;9.57;4.50;;;17.30;99.90;;;;;;4971688;28;20839;-85
2023/07/31 01:42:20;;;;;;;9.63;4.80;;;17.30;99.90;;;;;;4971224;28;20533;-85
2023/07/31 01:44:45;;;;;;;15.37;4.33;;;17.30;99.90;;;;;;4972756;28;20190;-85
2023/07/31 01:47:11;;;;;;;8.40;4.17;;;17.30;99.90;;;;;;4973051;28;20270;-84
2023/07/31 01:49:36;;;;;;;9.23;3.90;;;17.30;99.90;;;;;;4966385;28;20194;-85
2023/07/31 01:52:02;;;;;;;13.17;4.40;;;17.30;99.90;;;;;;4970329;28;20187;-85
2023/07/31 01:54:28;;;;;;;8.67;4.17;;;17.40;99.90;;;;;;4972726;28;20198;-84
2023/07/31 01:56:53;;;;;;;15.87;4.77;;;17.40;99.90;;;;;;4972164;28;20215;-83
2023/07/31 01:59:19;;;;;;;9.33;4.60;;;17.40;99.90;;;;;;4966081;28;20207;-85
2023/07/31 02:01:44;;;;;;;11.30;4.57;;;17.40;99.90;;;;;;4970362;28;20554;-83
2023/07/31 02:04:10;;;;;;;11.10;5.03;;;17.40;99.90;;;;;;4970781;28;20270;-85
2023/07/31 02:06:35;;;;;;;9.20;4.37;;;17.40;99.90;;;;;;4971735;28;20210;-85
2023/07/31 02:09:01;;;;;;;8.40;4.53;;;17.40;99.90;;;;;;4971661;28;20659;-84
2023/07/31 02:11:26;;;;;;;6.90;4.00;;;17.40;99.90;;;;;;4972333;28;20200;-84
2023/07/31 02:13:51;;;;;;;10.90;4.53;;;17.50;99.90;;;;;;4972129;28;20608;-85
2023/07/31 02:16:17;;;;;;;10.20;5.33;;;17.50;99.90;;;;;;4968345;28;20193;-84
2023/07/31 02:18:42;;;;;;;13.30;5.60;;;17.50;99.90;;;;;;4972033;28;20218;-84
2023/07/31 02:21:08;;;;;;;10.63;5.13;;;17.50;99.90;;;;;;4971093;28;20616;-84
2023/07/31 02:23:33;;;;;;;10.47;5.17;;;17.50;99.90;;;;;;4972191;28;20203;-83
2023/07/31 02:25:59;;;;;;;10.87;5.27;;;17.50;99.90;;;;;;4969524;28;20197;-84
2023/07/31 02:28:24;;;;;;;7.87;4.40;;;17.50;99.90;;;;;;4969478;28;20206;-85
2023/07/31 02:30:52;;;;;;;15.80;4.97;;;17.50;99.90;;;;;;4970641;28;20224;-85
2023/07/31 02:33:17;;;;;;;9.83;4.83;;;17.50;99.90;;;;;;4963967;28;20191;-85
2023/07/31 02:35:43;;;;;;;6.60;4.13;;;17.50;99.90;;;;;;4965706;28;20544;-84
2023/07/31 02:38:08;;;;;;;11.47;5.20;;;17.60;99.90;;;;;;4970279;28;20219;-84
2023/07/31 02:40:34;;;;;;;10.23;5.87;;;17.60;99.90;;;;;;4973276;28;20204;-84
2023/07/31 02:42:59;;;;;;;10.03;5.70;;;17.60;99.90;;;;;;4972357;28;20183;-85
2023/07/31 02:45:25;;;;;;;9.37;4.97;;;17.60;99.90;;;;;;4971094;28;20209;-85
2023/07/31 02:47:50;;;;;;;9.20;4.40;;;17.60;99.90;;;;;;4972587;28;20222;-85
2023/07/31 02:50:16;;;;;;;12.70;5.00;;;17.60;99.90;;;;;;4969461;28;20214;-84
2023/07/31 02:52:41;;;;;;;9.10;4.57;;;17.60;99.90;;;;;;4972943;28;20228;-85
2023/07/31 02:55:07;;;;;;;7.50;4.60;;;17.60;99.90;;;;;;4973087;28;20704;-84
2023/07/31 02:57:33;;;;;;;12.70;5.17;;;17.60;99.90;;;;;;4972556;28;20235;-84
2023/07/31 02:59:58;;;;;;;13.27;4.87;;;17.60;99.90;;;;;;4966816;28;20317;-83
2023/07/31 03:02:24;;;;;;;9.83;5.13;;;17.60;99.90;;;;;;4983084;28;20183;-85
2023/07/31 03:04:49;;;;;;;11.17;4.80;;;17.60;99.90;;;;;;4972849;28;20214;-85
2023/07/31 03:07:15;;;;;;;5.60;4.30;;;17.70;99.90;;;;;;4967881;28;20275;-85
2023/07/31 03:09:40;;;;;;;8.40;4.90;;;17.70;99.90;;;;;;4971975;28;20191;-85
2023/07/31 03:12:06;;;;;;;9.30;4.83;;;17.60;99.90;;;;;;4972027;28;20192;-85
2023/07/31 03:14:32;;;;;;;7.47;5.33;;;17.70;99.90;;;;;;4972693;28;20183;-85
2023/07/31 03:16:57;;;;;;;7.20;4.50;;;17.70;99.90;;;;;;4985410;28;20644;-84
2023/07/31 03:19:23;;;;;;;17.90;5.83;;;17.70;99.90;;;;;;4973289;28;20191;-84
2023/07/31 03:21:48;;;;;;;10.77;5.10;;;17.70;99.90;;;;;;4970926;28;20196;-84
2023/07/31 03:24:14;;;;;;;9.23;5.57;;;17.60;99.90;;;;;;4974540;28;20277;-84
2023/07/31 03:26:41;;;;;;;9.60;5.00;;;17.70;99.90;;;;;;4970455;28;20213;-84
2023/07/31 03:29:07;;;;;;;8.47;4.87;;;17.60;99.90;;;;;;4973468;28;20193;-84
2023/07/31 03:31:32;;;;;;;11.83;5.23;;;17.60;99.90;;;;;;4974214;28;20475;-84
2023/07/31 03:33:58;;;;;;;10.30;4.60;;;17.70;99.90;;;;;;4973506;28;20451;-85
2023/07/31 03:36:23;;;;;;;12.53;5.73;;;17.70;99.90;;;;;;4972840;28;20704;-84
2023/07/31 03:38:51;;;;;;;12.80;5.57;;;17.70;99.90;;;;;;4971313;28;20206;-85
2023/07/31 03:41:16;;;;;;;13.70;4.90;;;17.70;99.90;;;;;;4973004;28;20589;-85
2023/07/31 03:43:42;;;;;;;9.10;4.33;;;17.70;99.90;;;;;;4969537;28;20450;-85
2023/07/31 03:46:07;;;;;;;8.73;4.83;;;17.70;99.90;;;;;;4986850;28;20183;-85
2023/07/31 03:48:33;;;;;;;10.03;6.00;;;17.70;99.90;;;;;;4971870;28;20627;-85
2023/07/31 03:50:58;;;;;;;12.50;5.73;;;17.70;99.90;;;;;;4975682;28;20186;-85
2023/07/31 03:53:24;;;;;;;13.30;5.50;;;17.70;99.90;;;;;;4975730;28;20251;-85
2023/07/31 03:55:49;;;;;;;10.23;6.00;;;17.70;99.90;;;;;;4975881;28;20567;-84
2023/07/31 03:58:15;;;;;;;8.20;5.70;;;17.70;99.90;;;;;;4975695;28;20231;-84
2023/07/31 04:00:40;;;;;;;12.90;6.93;;;17.70;99.90;;;;;;4976673;28;20223;-84
2023/07/31 04:03:06;;;;;;;7.83;5.33;;;17.70;99.90;;;;;;4975598;28;20255;-84
2023/07/31 04:05:32;;;;;;;9.87;6.10;;;17.80;99.90;;;;;;4974190;28;20219;-84
2023/07/31 04:07:58;;;;;;;7.37;4.77;;;17.80;99.90;;;;;;5023446;23;22265;-84
2023/07/31 04:10:23;;;;;;;10.90;5.83;;;17.80;99.90;;;;;;4975681;28;20514;-85
2023/07/31 04:12:49;;;;;;;12.13;6.13;;;17.80;99.90;;;;;;4976386;28;20204;-84
2023/07/31 04:15:14;;;;;;;11.40;5.57;;;17.80;99.90;;;;;;4976578;28;20199;-85
2023/07/31 04:17:40;;;;;;;9.90;5.80;;;17.80;99.90;;;;;;4970807;28;20242;-85
2023/07/31 04:20:06;;;;;;;20.60;6.00;;;17.80;99.90;;;;;;4976289;28;20219;-85
2023/07/31 04:22:32;;;;;;;12.03;5.50;;;17.90;99.90;;;;;;4976458;28;20274;-85
2023/07/31 04:24:57;;;;;;;9.90;6.03;;;17.80;99.90;;;;;;4977019;28;20470;-84
2023/07/31 04:27:23;;;;;;;11.43;6.10;;;17.90;99.90;;;;;;4975397;28;20208;-85
2023/07/31 04:29:48;;;;;;;8.50;5.80;;;17.90;99.90;;;;;;4976991;28;20219;-85
2023/07/31 04:32:16;;;;;;;9.30;4.93;;;17.90;99.90;;;;;;4977085;28;20242;-85
2023/07/31 04:34:42;;;;;;;8.47;5.00;;;17.90;99.90;;;;;;4974098;28;20192;-85
2023/07/31 04:37:20;;;;;;;10.00;5.07;;;18.00;99.90;;;;;;4975827;28;20470;-85
2023/07/31 04:39:45;;;;;;;10.70;5.33;;;18.00;99.90;;;;;;4970698;28;20648;-85
2023/07/31 04:42:11;;;;;;;11.13;5.40;;;18.10;67.40;;;;;;4974162;28;20470;-85
2023/07/31 04:44:36;;;;;;;9.83;4.67;;;18.10;1.00;;;;;;4991427;28;20199;-85
2023/07/31 04:47:02;;;;;;;6.87;4.70;;;18.10;1.00;;;;;;4976920;28;20196;-85
2023/07/31 04:49:28;;;;;;;7.17;4.63;;;18.10;1.00;;;;;;4975846;28;20187;-85
2023/07/31 04:51:53;;;;;;;9.20;5.20;;;18.20;1.00;;;;;;4973524;28;21243;-85
2023/07/31 04:54:19;;;;;;;8.10;4.53;;;18.30;99.90;;;;;;4976586;28;20279;-84
2023/07/31 04:56:44;;;;;;;9.00;4.90;;;18.40;99.90;;;;;;4970232;28;20690;-84
2023/07/31 04:59:10;;;;;;;6.70;4.23;;;18.40;99.90;;;;;;4989415;28;20185;-85
2023/07/31 05:01:35;;;;;;;7.83;5.00;;;18.40;15.00;;;;;;4976660;28;20212;-85
2023/07/31 05:04:01;;;;;;;7.00;4.93;;;18.50;40.30;;;;;;4977310;28;20668;-85
2023/07/31 05:06:26;;;;;;;8.90;4.30;;;18.40;16.30;;;;;;4991343;28;20184;-85
2023/07/31 05:08:52;;;;;;;9.37;4.90;;;18.40;1.00;;;;;;4974233;28;20557;-84
2023/07/31 05:11:17;;;;;;;13.13;5.03;;;18.40;1.00;;;;;;4976722;28;20187;-85
2023/07/31 05:13:43;;;;;;;7.97;5.53;;;18.40;99.90;;;;;;4975242;28;20184;-85
2023/07/31 05:16:08;;;;;;;6.70;4.67;;;18.40;99.90;;;;;;4976403;28;20199;-84
2023/07/31 05:18:34;;;;;;;6.83;4.53;;;18.50;99.90;;;;;;4991135;28;20215;-85
2023/07/31 05:20:59;;;;;;;8.10;4.93;;;18.40;99.90;;;;;;4974893;28;20219;-85
2023/07/31 05:23:25;;;;;;;9.73;4.40;;;18.40;99.90;;;;;;4972782;28;20184;-85
2023/07/31 05:25:50;;;;;;;8.77;5.47;;;18.40;99.90;;;;;;4972617;28;20195;-84
2023/07/31 05:28:16;;;;;;;9.00;4.53;;;18.40;99.90;;;;;;4990328;28;20578;-86
2023/07/31 05:30:41;;;;;;;6.00;4.00;;;18.40;99.90;;;;;;4974381;28;20193;-85
2023/07/31 05:33:07;;;;;;;7.80;4.50;;;18.40;99.90;;;;;;4976068;28;20255;-86
2023/07/31 05:35:38;;;;;;;9.07;5.00;;;18.30;99.90;;;;;;4969069;28;20196;-85
2023/07/31 05:38:04;;;;;;;10.07;4.40;;;18.30;6.70;;;;;;4975976;28;20222;-84
2023/07/31 05:40:32;;;;;;;9.83;4.57;;;18.30;1.00;;;;;;4975590;28;20472;-85
2023/07/31 05:42:58;;;;;;;8.53;5.03;;;18.20;1.00;;;;;;4972193;28;20192;-85
2023/07/31 05:45:24;;;;;;;7.73;4.80;;;18.20;99.90;;;;;;4989994;28;20420;-85
2023/07/31 05:47:50;;;;;;;12.57;5.13;;;18.10;99.90;;;;;;4975923;28;20284;-85
2023/07/31 05:50:16;;;;;;;9.80;5.20;;;18.10;99.90;;;;;;4975641;28;20515;-85
2023/07/31 05:52:42;;;;;;;11.60;4.87;;;18.10;99.90;;;;;;4975019;28;20197;-84
2023/07/31 05:55:08;;;;;;;6.30;4.83;;;18.00;99.90;;;;;;4971580;28;20488;-85
2023/07/31 05:57:33;;;;;;;9.43;4.47;;;18.00;99.90;;;;;;4973397;28;20488;-85
2023/07/31 05:59:59;;;;;;;8.67;4.83;;;18.00;99.90;;;;;;4975322;28;20239;-86
2023/07/31 06:02:24;;;;;;;9.67;5.00;;;18.00;99.90;;;;;;4976386;28;20195;-85
2023/07/31 06:04:50;;;;;;;12.17;4.70;;;18.00;99.90;;;;;;4977182;28;20177;-85
2023/07/31 06:07:15;;;;;;;9.63;4.93;;;18.00;99.90;;;;;;4977371;28;20225;-84
2023/07/31 06:09:41;;;;;;;9.80;4.67;;;18.10;99.90;;;;;;4977639;28;20203;-85
2023/07/31 06:12:07;;;;;;;6.37;4.27;;;18.20;99.90;;;;;;4973119;28;20655;-84
2023/07/31 06:14:34;;;;;;;6.40;3.53;;;18.30;99.90;;;;;;4974740;28;20223;-84
2023/07/31 06:17:00;;;;;;;8.90;4.50;;;18.40;99.90;;;;;;4975775;28;20591;-84
2023/07/31 06:19:25;;;;;;;7.00;4.40;;;18.40;99.90;;;;;;4975770;28;20455;-84
2023/07/31 06:21:51;;;;;;;7.87;4.00;;;18.50;37.00;;;;;;4977155;28;20180;-84
2023/07/31 06:24:20;;;;;;;13.30;5.30;;;18.70;1.00;;;;;;4974706;28;20192;-84
2023/07/31 06:26:45;;;;;;;7.40;3.87;;;18.80;1.00;;;;;;4974008;28;20210;-84
2023/07/31 06:29:11;;;;;;;9.47;4.20;;;19.10;99.90;;;;;;4971484;28;20533;-85
2023/07/31 06:31:36;;;;;;;5.63;3.93;;;19.40;99.90;;;;;;4975134;28;20186;-84
2023/07/31 06:34:02;;;;;;;9.73;3.73;;;19.40;99.90;;;;;;4972537;28;20195;-84
2023/07/31 06:36:27;;;;;;;6.33;3.90;;;19.50;99.90;;;;;;4973044;28;20661;-84
2023/07/31 06:38:52;;;;;;;8.30;3.90;;;19.50;1.00;;;;;;4973204;28;20192;-84
2023/07/31 06:41:18;;;;;;;8.00;4.17;;;19.50;1.00;;;;;;4972802;28;20837;-84
2023/07/31 06:43:43;;;;;;;4.63;3.60;;;19.50;1.00;;;;;;4988172;28;20187;-84
2023/07/31 06:46:09;;;;;;;8.53;4.00;;;19.50;99.90;;;;;;4971662;28;20195;-84
2023/07/31 06:48:37;;;;;;;7.07;4.10;;;19.50;99.90;;;;;;4970594;28;20211;-84
2023/07/31 06:51:02;;;;;;;6.83;3.47;;;19.50;99.90;;;;;;4971779;28;20431;-85
2023/07/31 06:53:28;;;;;;;5.77;3.03;;;19.40;99.90;;;;;;4970208;28;20961;-84
2023/07/31 06:55:54;;;;;;;6.43;3.30;;;19.30;1.00;;;;;;4970635;28;20661;-84
2023/07/31 06:58:20;;;;;;;6.40;3.70;;;19.20;99.90;;;;;;4970772;28;20492;-85
2023/07/31 07:00:45;;;;;;;9.00;4.00;;;19.20;99.90;;;;;;4970889;28;20477;-85
2023/07/31 07:03:11;;;;;;;7.60;3.40;;;19.20;99.90;;;;;;4972056;28;20225;-84
2023/07/31 07:05:36;;;;;;;8.93;4.33;;;19.20;1.00;;;;;;4969404;28;20197;-84
2023/07/31 07:08:02;;;;;;;8.20;3.97;;;19.10;99.90;;;;;;4970109;28;20776;-84
2023/07/31 07:10:27;;;;;;;8.07;3.70;;;19.10;1.00;;;;;;4971469;28;20192;-84
2023/07/31 07:12:53;;;;;;;7.27;3.93;;;19.00;1.00;;;;;;4973584;28;20203;-84
2023/07/31 07:15:18;;;;;;;11.30;4.60;;;18.90;1.00;;;;;;4986311;28;20189;-83
2023/07/31 07:17:44;;;;;;;9.17;4.53;;;18.90;99.90;;;;;;4960464;28;20214;-85
2023/07/31 07:20:09;;;;;;;10.93;4.93;;;18.90;99.90;;;;;;4973511;28;20219;-85
2023/07/31 07:22:35;;;;;;;4.87;3.87;;;18.80;1.00;;;;;;4971136;28;20210;-85
2023/07/31 07:25:01;;;;;;;11.03;4.00;;;18.80;1.00;;;;;;4978842;28;20188;-85
2023/07/31 07:27:27;;;;;;;10.13;3.90;;;18.80;1.00;;;;;;4977696;28;20201;-85
2023/07/31 07:29:53;;;;;;;7.10;4.50;;;18.70;1.00;;;;;;4980503;28;20190;-84
2023/07/31 07:32:19;;;;;;;10.60;4.07;;;18.70;1.00;;;;;;4978623;28;20203;-83
2023/07/31 07:34:44;;;;;;;6.67;3.87;;;18.70;1.00;;;;;;4978137;28;20450;-84
2023/07/31 07:37:10;;;;;;;9.93;4.00;;;18.70;1.00;;;;;;4976475;28;20467;-84
2023/07/31 07:39:35;;;;;;;8.33;4.17;;;18.70;1.00;;;;;;4969379;28;20194;-85
2023/07/31 07:42:01;;;;;;;7.87;4.73;;;18.70;1.00;;;;;;4976336;28;20598;-84
2023/07/31 07:44:26;;;;;;;7.37;4.60;;;18.70;1.00;;;;;;4977334;28;20187;-84
2023/07/31 07:46:52;;;;;;;7.40;3.33;;;18.70;1.00;;;;;;4974731;28;20276;-84
2023/07/31 07:49:18;;;;;;;7.90;3.60;;;18.80;1.00;;;;;;4975154;28;20183;-85
2023/07/31 07:51:43;;;;;;;5.77;3.50;;;18.90;1.00;;;;;;4977507;28;20522;-84
2023/07/31 07:54:09;;;;;;;8.80;4.53;;;18.90;1.00;;;;;;4977066;28;20221;-85
2023/07/31 07:56:36;;;;;;;6.33;3.40;;;19.00;1.00;;;;;;4974884;28;20377;-84
2023/07/31 07:59:01;;;;;;;5.43;3.70;;;19.00;99.90;;;;;;4976006;28;20226;-84
2023/07/31 08:01:27;;;;;;;12.80;4.00;;;18.90;99.90;;;;;;4973817;28;20500;-84
2023/07/31 08:03:53;;;;;;;9.67;4.20;;;18.90;99.90;;;;;;4975221;28;20265;-84
2023/07/31 08:06:18;;;;;;;6.97;4.30;;;18.80;99.90;;;;;;4977931;28;20264;-84
2023/07/31 08:08:44;;;;;;;8.07;3.67;;;18.70;99.90;;;;;;4976598;28;20196;-84
2023/07/31 08:11:09;;;;;;;11.60;5.07;;;18.60;1.00;;;;;;4973060;28;20195;-83
2023/07/31 08:13:36;;;;;;;9.37;4.43;;;18.60;1.00;;;;;;4974631;28;20200;-83
2023/07/31 08:16:02;;;;;;;8.63;4.00;;;18.60;1.00;;;;;;4975249;28;20210;-84
2023/07/31 08:18:28;;;;;;;7.50;3.90;;;18.60;71.10;;;;;;4976002;28;20913;-84
2023/07/31 08:20:56;;;;;;;7.13;3.70;;;18.80;50.00;;;;;;4976044;28;20553;-85
2023/07/31 08:23:22;;;;;;;5.43;3.83;;;18.80;1.00;;;;;;4977819;28;20695;-84
2023/07/31 08:25:49;;;;;;;5.07;4.00;;;19.00;1.00;;;;;;4975223;28;20521;-84
2023/07/31 08:28:15;;;;;;;5.17;3.30;;;19.10;1.00;;;;;;4971826;28;20227;-84
2023/07/31 08:30:41;;;;;;;6.70;4.00;;;19.20;99.90;;;;;;4972941;28;20454;-84
2023/07/31 08:33:07;;;;;;;4.73;3.40;;;19.30;99.90;;;;;;4973608;28;20657;-84
2023/07/31 08:35:33;;;;;;;6.13;3.87;;;19.40;1.00;;;;;;4990203;28;20485;-84
2023/07/31 08:38:01;;;;;;;5.77;4.27;;;19.50;99.90;;;;;;4976134;28;20211;-84
2023/07/31 08:40:28;;;;;;;6.50;3.93;;;19.70;99.90;;;;;;4975741;28;20247;-83
2023/07/31 08:42:56;;;;;;;5.40;3.83;;;19.70;99.90;;;;;;4976202;28;20496;-84
2023/07/31 08:45:22;;;;;;;13.73;4.47;;;19.70;75.90;;;;;;4972319;28;20557;-84
2023/07/31 08:47:51;;;;;;;6.40;3.93;;;19.60;99.90;;;;;;4961161;28;20462;-84
2023/07/31 08:50:19;;;;;;;5.30;4.20;;;19.60;1.00;;;;;;4991667;28;20440;-84
2023/07/31 08:52:49;;;;;;;6.23;4.53;;;19.60;99.90;;;;;;4976906;28;20423;-84
2023/07/31 08:55:15;;;;;;;7.50;4.17;;;19.70;99.90;;;;;;4974619;28;20443;-84
2023/07/31 08:57:42;;;;;;;7.73;4.40;;;19.70;1.00;;;;;;4976220;28;20829;-84
2023/07/31 09:00:09;;;;;;;6.20;3.90;;;19.90;99.90;;;;;;4974362;28;20290;-84
2023/07/31 09:02:41;;;;;;;5.90;3.30;;;20.00;94.80;;;;;;4976865;28;20452;-84
2023/07/31 09:05:07;;;;;;;5.73;4.00;;;20.10;82.10;;;;;;4977861;28;20449;-84
2023/07/31 09:07:35;;;;;;;5.23;3.27;;;20.30;99.90;;;;;;4973039;28;20472;-84
2023/07/31 09:10:01;;;;;;;4.10;3.27;;;20.10;99.90;;;;;;4973532;28;20468;-84
2023/07/31 09:12:28;;;;;;;5.90;3.30;;;20.10;99.90;;;;;;4973480;28;20556;-84
2023/07/31 09:14:53;;;;;;;5.80;3.27;;;20.10;1.00;;;;;;4972707;28;20940;-85
2023/07/31 09:17:32;;;;;;;4.90;3.20;;;20.20;1.00;;;;;;4971761;28;20457;-85
2023/07/31 09:20:12;;;;;;;5.70;3.57;;;20.40;99.90;;;;;;4988758;28;20236;-85
2023/07/31 09:22:38;;;;;;;6.43;3.70;;;20.60;99.90;;;;;;4970247;28;20501;-85
2023/07/31 09:25:18;;;;;;;10.43;3.13;;;20.40;99.90;;;;;;4974374;28;20528;-85
2023/07/31 09:27:57;;;;;;;4.90;3.10;;;20.40;99.90;;;;;;4971329;28;20248;-85
2023/07/31 09:30:22;;;;;;;8.53;3.80;;;20.50;99.90;;;;;;4974420;28;21003;-85
2023/07/31 09:32:49;;;;;;;5.70;3.83;;;20.60;99.90;;;;;;4973597;28;20438;-84
2023/07/31 09:35:33;;;;;;;5.13;3.30;;;20.50;1.00;;;;;;4970905;28;20201;-84
2023/07/31 09:38:02;;;;;;;4.40;3.33;;;20.30;72.40;;;;;;4962174;28;20899;-84
2023/07/31 09:40:30;;;;;;;8.13;4.10;;;20.40;99.90;;;;;;4983649;28;20478;-84
2023/07/31 09:43:04;;;;;;;4.07;3.37;;;20.40;1.00;;;;;;4994466;28;20474;-85
2023/07/31 09:45:41;;;;;;;6.23;4.00;;;20.30;99.90;;;;;;4990984;28;20437;-85
2023/07/31 09:48:18;;;;;;;7.87;4.00;;;20.10;1.00;;;;;;4974652;28;20486;-85
2023/07/31 09:50:48;;;;;;;5.33;3.60;;;20.00;99.90;;;;;;4972847;28;20814;-84
2023/07/31 09:53:15;;;;;;;5.83;3.50;;;19.90;1.00;;;;;;4973165;28;20844;-84
2023/07/31 09:55:46;;;;;;;5.60;3.77;;;19.90;1.00;;;;;;4970290;28;20429;-85
2023/07/31 09:58:12;;;;;;;11.93;4.03;;;20.00;1.00;;;;;;4971047;28;20457;-85
2023/07/31 10:00:38;;;;;;;5.43;3.70;;;20.00;99.90;;;;;;4971531;28;20476;-85
2023/07/31 10:03:10;;;;;;;6.27;3.43;;;20.10;99.90;;;;;;4973487;28;20510;-82
2023/07/31 10:05:39;;;;;;;8.20;3.30;;;20.10;1.00;;;;;;4980849;28;20205;-83
2023/07/31 10:08:09;;;;;;;7.50;3.03;;;20.20;99.90;;;;;;4981619;28;20495;-81
2023/07/31 10:10:36;;;;;;;6.30;3.57;;;20.50;99.90;;;;;;4973605;28;20454;-83
2023/07/31 10:13:02;;;;;;;7.13;3.73;;;20.80;1.00;;;;;;4970230;28;21030;-82
2023/07/31 10:15:29;;;;;;;6.30;3.50;;;20.90;1.00;;;;;;4981370;28;20451;-82
2023/07/31 10:17:56;;;;;;;3.87;3.00;;;21.00;99.90;;;;;;4978834;28;20262;-83
2023/07/31 10:20:22;;;;;;;6.23;3.90;;;21.10;99.90;;;;;;4975831;28;21220;-82
2023/07/31 10:22:48;;;;;;;6.90;3.30;;;21.30;1.00;;;;;;4984016;28;20446;-82
2023/07/31 10:25:15;;;;;;;4.40;3.10;;;21.30;1.00;;;;;;4979041;28;20184;-83
2023/07/31 10:27:41;;;;;;;4.97;2.50;;;21.50;1.00;;;;;;4979333;28;20476;-83
2023/07/31 10:30:16;;;;;;;4.83;2.80;;;21.70;99.90;;;;;;4980299;28;20449;-83
2023/07/31 10:32:43;;;;;;;4.53;2.70;;;21.90;99.90;;;;;;4978945;28;20481;-81
2023/07/31 10:35:10;;;;;;;4.57;2.63;;;21.70;99.90;;;;;;4998369;28;20446;-83
2023/07/31 10:37:41;;;;;;;6.67;2.70;;;21.50;99.90;;;;;;4994606;28;20479;-82
2023/07/31 10:40:10;;;;;;;4.23;2.43;;;21.20;99.90;;;;;;4966511;28;20475;-83
2023/07/31 10:42:44;;;;;;;2.97;1.80;;;21.10;1.00;;;;;;4978999;28;20485;-83
2023/07/31 10:45:10;;;;;;;3.17;1.90;;;21.10;1.00;;;;;;4980122;28;20528;-82
2023/07/31 10:47:46;;;;;;;4.87;2.27;;;21.20;1.00;;;;;;4972194;28;20515;-82
2023/07/31 10:50:17;;;;;;;3.60;2.10;;;21.70;1.00;;;;;;4978130;28;20191;-82
2023/07/31 10:52:51;;;;;;;3.03;2.17;;;22.00;99.90;;;;;;4990535;28;20514;-83
2023/07/31 10:55:30;;;;;;;3.33;2.20;;;22.60;85.20;;;;;;4989481;28;20606;-82
2023/07/31 10:57:58;;;;;;;4.73;1.77;;;23.40;1.00;;;;;;4988522;28;20850;-82
2023/07/31 11:00:28;;;;;;;3.43;1.63;;;23.50;1.00;;;;;;4974844;28;20613;-82
2023/07/31 11:03:16;;;;;;;2.27;1.70;;;23.40;1.00;;;;;;4975699;28;20434;-83
2023/07/31 11:05:55;;;;;;;2.80;1.70;;;23.30;1.00;;;;;;4986904;28;20449;-83
2023/07/31 11:08:25;;;;;;;3.13;1.93;;;23.30;1.00;;;;;;4972388;28;20477;-82
2023/07/31 11:11:05;;;;;;;5.13;1.73;;;23.20;1.00;;;;;;4972206;28;20446;-83
2023/07/31 11:13:34;;;;;;;3.53;1.73;;;23.10;1.00;;;;;;4976845;28;20446;-82
2023/07/31 11:16:00;;;;;;;4.00;2.30;;;23.50;1.00;;;;;;4979228;28;20441;-82
2023/07/31 11:18:26;;;;;;;5.37;1.97;;;23.60;1.00;;;;;;4976629;28;20478;-82
2023/07/31 11:20:53;;;;;;;1.60;1.37;;;24.00;1.00;;;;;;4978309;28;20498;-82
2023/07/31 11:23:19;;;;;;;2.10;1.40;;;24.20;1.00;;;;;;4972464;28;20438;-82
2023/07/31 11:25:45;;;;;;;3.73;1.80;;;24.10;1.00;;;;;;4976334;28;20441;-82
2023/07/31 11:28:12;;;;;;;1.80;1.47;;;23.80;1.00;;;;;;4977000;28;20469;-82
2023/07/31 11:30:40;;;;;;;4.10;1.90;;;23.50;1.00;;;;;;4980492;28;20199;-82
2023/07/31 11:33:07;;;;;;;3.10;2.07;;;23.50;1.00;;;;;;4978739;28;20454;-81
2023/07/31 11:35:35;;;;;;;2.37;1.50;;;23.50;1.00;;;;;;4976646;28;20453;-82
2023/07/31 11:38:01;;;;;;;5.13;1.70;;;23.40;1.00;;;;;;4992975;28;20496;-82
2023/07/31 11:40:30;;;;;;;3.33;2.10;;;23.30;1.00;;;;;;4970043;28;20487;-81
2023/07/31 11:42:57;;;;;;;5.13;2.80;;;23.10;1.00;;;;;;4978605;28;20813;-82
2023/07/31 11:45:27;;;;;;;5.23;2.03;;;23.00;1.00;;;;;;4977743;28;20492;-81
2023/07/31 11:47:54;;;;;;;2.80;1.90;;;22.60;1.00;;;;;;4974428;28;20515;-82
2023/07/31 11:50:20;;;;;;;3.37;2.20;;;22.50;1.00;;;;;;4977627;28;21015;-82
2023/07/31 11:52:48;;;;;;;3.30;2.33;;;22.40;1.00;;;;;;4975626;28;20443;-82
2023/07/31 11:55:15;;;;;;;3.50;2.63;;;22.50;1.00;;;;;;4972636;28;20293;-82
2023/07/31 11:57:42;;;;;;;4.63;2.50;;;22.50;99.90;;;;;;4975405;28;21845;-82
2023/07/31 12:00:10;;;;;;;3.40;2.40;;;22.50;99.90;;;;;;4974502;28;20479;-82
2023/07/31 12:02:37;;;;;;;3.30;2.33;;;22.60;99.90;;;;;;4968987;28;20464;-82
2023/07/31 12:05:02;;;;;;;3.37;2.70;;;22.50;99.90;;;;;;4980587;28;20444;-81
2023/07/31 12:07:43;;;;;;;4.13;2.60;;;22.30;99.90;;;;;;4979718;28;20554;-81
2023/07/31 12:10:09;;;;;;;4.47;2.60;;;22.10;1.00;;;;;;4977278;28;20204;-81
2023/07/31 12:12:34;;;;;;;3.63;2.53;;;21.90;1.00;;;;;;4981008;28;20591;-82
2023/07/31 12:15:00;;;;;;;4.30;3.30;;;21.80;99.90;;;;;;4981067;28;20211;-82
2023/07/31 12:17:25;;;;;;;4.03;2.90;;;21.80;1.00;;;;;;4978706;28;20224;-82
2023/07/31 12:19:51;;;;;;;4.47;3.30;;;21.90;1.00;;;;;;4980150;28;20248;-82
2023/07/31 12:22:16;;;;;;;2.97;2.67;;;22.10;24.80;;;;;;4983794;28;20178;-83
2023/07/31 12:24:46;;;;;;;4.20;3.17;;;23.00;99.90;;;;;;4981946;28;20206;-82
2023/07/31 12:27:13;;;;;;;4.83;3.07;;;23.90;99.90;;;;;;4976410;28;20220;-83
2023/07/31 12:29:40;;;;;;;6.10;3.60;;;24.50;99.90;;;;;;4976408;28;20872;-83
2023/07/31 12:32:29;;;;;;;4.87;3.00;;;24.90;1.00;;;;;;4970983;28;20447;-84
2023/07/31 12:34:59;;;;;;;6.30;2.90;;;25.20;1.00;;;;;;4977810;28;20452;-84
2023/07/31 12:37:25;;;;;;;3.10;2.57;;;25.00;1.00;;;;;;4975370;28;20499;-84
2023/07/31 12:39:50;;;;;;;5.17;2.83;;;24.90;1.00;;;;;;4977165;28;20466;-84
2023/07/31 12:42:18;;;;;;;8.23;3.13;;;25.10;1.00;;;;;;4976572;28;20185;-84
2023/07/31 12:44:43;;;;;;;4.57;3.30;;;25.20;1.00;;;;;;4980901;28;20679;-83
2023/07/31 12:47:09;;;;;;;3.57;3.07;;;24.90;1.00;;;;;;4980469;28;20573;-82